Christmas/Cassidy, Kiribati
Current Conditions -  °F | °C
As of 1:53 PM on Tuesday 21 Oct 2014 (Local Time) from PHKO Reporting Station
Overcast Overcast  
Wind Chill: 83°   Ceiling: 4200
Heat Index: 88°   Visibility: 10mi
Dew Point: 72°   Wind: 5mph
Humidity: 69%   Direction: 230°SW
Pressure: 29.91"   Gusts: NA
Location:  1.98°N, 157.48°W
Report Text: PHKO 210153Z 23004KT 10SM OVC042 28/22 A2991 RMK AO2 SLP129 T02830222
Loading
Personal Weather Stations






























Interactive Weather Map
Tropical Storm Tracking
New forecast layout! Learn more

10-Day Weather Forecast

Advertisements
Track Severe Weather on mobile